Divnoe, Russia
Current Conditions -  °F | °C
As of 8:00 PM on Tuesday 27 Jan 2015 (Local Time) from URWI Reporting Station
Moderate Fog Moderate Fog  
Wind Chill: 18°   Ceiling: 200
Heat Index: 30°   Visibility: 0.21mi
Dew Point: 30°   Wind: 20mph
Humidity: 100%   Direction: 130°SE
Pressure: 30.21"   Gusts: NA
Location:  45.92°N, 43.35°E
Report Text: URWI 271700Z 13009MPS 0350 FZFG VV002 M01/M01 Q1023 NOSIG RMKQBB060 OBST OBSC
Loading
Personal Weather Stations






























Interactive Weather Map New forecast layout! Learn more

10-Day Weather Forecast

Advertisements
Track Severe Weather on mobile